Time;durP1;ratioP1;P1;durP2;ratioP2;P2;SDS_P1;SDS_P2;PMS_P1;PMS_P2;Temp;Humidity;BMP_temperature;BMP_pressure;BME280_temperature;BME280_humidity;BME280_pressure;Samples;Min_cycle;Max_cycle;Signal;HPM_P1;HPM_P2
2021/08/14 00:00:03;;;;;;;10.32;8.52;;;564.00;2432.00;;;;;;5034211;28;20021;-83
2021/08/14 00:02:29;;;;;;;12.88;8.50;;;564.00;2432.00;;;;;;5034499;28;20467;-82
2021/08/14 00:04:55;;;;;;;14.70;8.38;;;564.10;2432.00;;;;;;5034747;28;20025;-84
2021/08/14 00:07:21;;;;;;;9.40;7.70;;;564.10;2432.00;;;;;;5034353;28;20028;-83
2021/08/14 00:09:47;;;;;;;12.77;8.15;;;564.10;2432.00;;;;;;5034527;28;20018;-84
2021/08/14 00:12:13;;;;;;;9.57;7.93;;;564.00;2432.00;;;;;;5033923;28;20029;-83
2021/08/14 00:14:38;;;;;;;10.93;9.15;;;564.10;2432.00;;;;;;5034255;28;20028;-83
2021/08/14 00:17:05;;;;;;;12.95;8.43;;;563.80;2432.00;;;;;;5035344;28;20486;-83
2021/08/14 00:19:31;;;;;;;10.95;8.15;;;563.90;2432.00;;;;;;5033444;28;20112;-83
2021/08/14 00:21:57;;;;;;;12.93;9.07;;;564.00;2432.00;;;;;;5034199;28;20055;-82
2021/08/14 00:24:23;;;;;;;9.13;7.68;;;563.90;2432.00;;;;;;5033941;28;20390;-82
2021/08/14 00:26:51;;;;;;;11.15;8.60;;;564.00;2432.00;;;;;;5033723;28;20104;-83
2021/08/14 00:29:17;;;;;;;13.32;8.20;;;564.00;2432.00;;;;;;5033045;28;20018;-83
2021/08/14 00:31:43;;;;;;;14.57;9.23;;;564.10;2432.00;;;;;;5032119;28;20049;-86
2021/08/14 00:34:09;;;;;;;10.52;7.47;;;563.90;2432.00;;;;;;5032282;28;20017;-82
2021/08/14 00:36:35;;;;;;;10.23;7.85;;;564.00;2432.00;;;;;;5033115;28;20079;-83
2021/08/14 00:39:02;;;;;;;9.60;7.38;;;563.90;2432.00;;;;;;5033341;28;20014;-82
2021/08/14 00:41:30;;;;;;;13.32;8.20;;;563.80;2432.00;;;;;;5033561;28;20029;-83
2021/08/14 00:44:01;;;;;;;13.60;7.95;;;564.00;2432.00;;;;;;5032603;28;20071;-83
2021/08/14 00:46:31;;;;;;;11.43;7.68;;;563.80;2432.00;;;;;;5032491;28;20033;-84
2021/08/14 00:48:57;;;;;;;12.85;8.52;;;564.00;2432.00;;;;;;5032532;28;20108;-83
2021/08/14 00:51:23;;;;;;;12.90;8.60;;;563.60;2432.00;;;;;;5032794;28;20026;-84
2021/08/14 00:53:49;;;;;;;14.68;7.95;;;563.60;2432.00;;;;;;5033270;28;20060;-83
2021/08/14 00:56:18;;;;;;;12.25;8.30;;;563.60;2432.00;;;;;;5033454;28;20017;-85
2021/08/14 00:58:44;;;;;;;11.02;8.30;;;563.50;2432.00;;;;;;5032742;28;20013;-83
2021/08/14 01:01:10;;;;;;;10.88;7.78;;;563.70;2432.00;;;;;;5032178;28;20028;-84
2021/08/14 01:03:37;;;;;;;10.15;8.63;;;563.70;2432.00;;;;;;5032050;28;20405;-84
2021/08/14 01:06:03;;;;;;;13.07;8.45;;;563.70;2432.00;;;;;;5032142;28;20382;-84
2021/08/14 01:08:28;;;;;;;12.50;8.80;;;563.60;2432.00;;;;;;5032931;28;20024;-84
2021/08/14 01:10:54;;;;;;;10.27;7.75;;;563.60;2432.00;;;;;;5032968;28;20018;-84
2021/08/14 01:13:21;;;;;;;13.93;8.48;;;563.50;2432.00;;;;;;5032432;28;20508;-84
2021/08/14 01:15:48;;;;;;;12.63;8.73;;;563.60;2432.00;;;;;;5031590;28;20352;-82
2021/08/14 01:18:16;;;;;;;9.80;8.15;;;563.60;2432.00;;;;;;5032036;28;20116;-82
2021/08/14 01:20:44;;;;;;;13.85;8.73;;;563.60;2432.00;;;;;;5031776;28;20022;-83
2021/08/14 01:23:15;;;;;;;10.05;7.88;;;563.60;2432.00;;;;;;5032976;28;20021;-82
2021/08/14 01:25:44;;;;;;;14.25;9.07;;;563.60;2432.00;;;;;;5032908;28;20025;-83
2021/08/14 01:28:13;;;;;;;17.50;8.75;;;563.40;2432.00;;;;;;5033519;28;20018;-83
2021/08/14 01:30:40;;;;;;;8.85;7.88;;;563.40;2432.00;;;;;;5032794;28;20434;-87
2021/08/14 01:33:09;;;;;;;9.63;7.55;;;563.40;2432.00;;;;;;5033361;28;20418;-84
2021/08/14 01:35:35;;;;;;;11.10;7.22;;;563.50;2432.00;;;;;;5032717;28;20096;-84
2021/08/14 01:38:01;;;;;;;8.82;6.90;;;563.50;2432.00;;;;;;5033129;28;20037;-87
2021/08/14 01:40:27;;;;;;;9.40;8.02;;;563.60;2432.00;;;;;;5033022;28;20018;-84
2021/08/14 01:42:53;;;;;;;9.48;7.43;;;563.70;2432.00;;;;;;5050261;28;20028;-84
2021/08/14 01:45:19;;;;;;;10.07;7.70;;;563.70;2432.00;;;;;;5057527;28;20014;-83
2021/08/14 01:47:45;;;;;;;9.52;7.15;;;563.70;2432.00;;;;;;5057701;28;20032;-85
2021/08/14 01:50:11;;;;;;;11.10;7.78;;;563.70;2432.00;;;;;;5057187;28;20013;-79
2021/08/14 01:52:36;;;;;;;9.38;7.70;;;563.70;2432.00;;;;;;5057515;28;20109;-81
2021/08/14 01:55:03;;;;;;;13.75;7.80;;;563.60;2432.00;;;;;;5057565;28;20068;-83
2021/08/14 01:57:29;;;;;;;9.88;8.00;;;563.60;2432.00;;;;;;5057304;28;20061;-82
2021/08/14 01:59:55;;;;;;;11.57;7.45;;;563.60;2432.00;;;;;;5048430;28;20374;-82
2021/08/14 02:02:21;;;;;;;11.05;8.45;;;563.60;2432.00;;;;;;5034037;28;20017;-82
2021/08/14 02:04:47;;;;;;;8.55;7.55;;;563.60;2432.00;;;;;;5033955;28;20033;-81
2021/08/14 02:07:13;;;;;;;12.45;7.53;;;563.50;2432.00;;;;;;5034531;28;20382;-82
2021/08/14 02:09:39;;;;;;;12.98;7.78;;;563.60;2432.00;;;;;;5034665;28;20025;-84
2021/08/14 02:12:05;;;;;;;12.07;7.45;;;563.60;2432.00;;;;;;5034114;28;20092;-85
2021/08/14 02:14:31;;;;;;;10.02;7.90;;;563.60;2432.00;;;;;;5034580;28;20021;-85
2021/08/14 02:16:56;;;;;;;12.15;8.32;;;563.60;2432.00;;;;;;5033941;28;20075;-84
2021/08/14 02:19:22;;;;;;;15.90;9.48;;;563.60;2432.00;;;;;;5034935;28;20025;-84
2021/08/14 02:21:48;;;;;;;10.80;9.30;;;538.50;2406.40;;;;;;5032636;28;20528;-84
2021/08/14 02:24:14;;;;;;;12.95;9.75;;;538.20;2406.40;;;;;;5032585;28;20025;-85
2021/08/14 02:26:40;;;;;;;13.23;9.00;;;537.90;2406.40;;;;;;5032451;28;20025;-84
2021/08/14 02:29:06;;;;;;;13.75;10.57;;;537.90;2406.40;;;;;;5032243;28;20021;-85
2021/08/14 02:31:32;;;;;;;19.00;10.23;;;537.80;2406.40;;;;;;5032122;28;20072;-84
2021/08/14 02:33:58;;;;;;;14.82;11.90;;;538.10;2406.40;;;;;;5032358;28;20462;-84
2021/08/14 02:36:24;;;;;;;16.65;11.52;;;537.90;2406.40;;;;;;5032361;28;20780;-85
2021/08/14 02:38:50;;;;;;;12.48;10.13;;;538.00;2406.40;;;;;;5032002;28;20043;-85
2021/08/14 02:41:16;;;;;;;11.98;9.32;;;537.90;2406.40;;;;;;5033328;28;20049;-84
2021/08/14 02:43:42;;;;;;;11.10;8.70;;;537.60;2406.40;;;;;;5035877;28;20071;-84
2021/08/14 02:46:08;;;;;;;10.13;8.43;;;537.80;2406.40;;;;;;5035470;28;20022;-85
2021/08/14 02:48:34;;;;;;;12.20;9.13;;;537.80;2406.40;;;;;;5035651;28;20876;-85
2021/08/14 02:50:59;;;;;;;10.70;8.93;;;512.90;2380.80;;;;;;5035876;28;20048;-86
2021/08/14 02:53:26;;;;;;;14.10;10.25;;;512.90;2380.80;;;;;;5035743;28;20017;-84
2021/08/14 02:55:52;;;;;;;10.27;8.57;;;512.90;2380.80;;;;;;5035569;28;20067;-84
2021/08/14 02:58:18;;;;;;;11.88;8.70;;;512.90;2380.80;;;;;;5035557;28;20018;-85
2021/08/14 03:00:44;;;;;;;10.45;9.15;;;512.50;2380.80;;;;;;5035294;28;20067;-86
2021/08/14 03:03:10;;;;;;;11.68;9.38;;;512.90;2380.80;;;;;;5035984;28;20026;-83
2021/08/14 03:05:36;;;;;;;14.68;9.75;;;512.60;2380.80;;;;;;5035484;28;20052;-82
2021/08/14 03:08:01;;;;;;;9.85;8.13;;;512.60;2380.80;;;;;;5035401;28;20018;-83
2021/08/14 03:10:27;;;;;;;14.18;9.43;;;512.70;2380.80;;;;;;5035623;28;20022;-84
2021/08/14 03:12:53;;;;;;;10.18;8.20;;;512.50;2380.80;;;;;;5035153;28;20018;-83
2021/08/14 03:15:19;;;;;;;11.40;9.07;;;512.60;2380.80;;;;;;5035452;28;20018;-84
2021/08/14 03:17:45;;;;;;;11.70;8.82;;;512.90;2380.80;;;;;;5035366;28;20129;-83
2021/08/14 03:20:11;;;;;;;12.15;8.98;;;512.90;2380.80;;;;;;5035038;28;20407;-82
2021/08/14 03:22:37;;;;;;;10.52;8.95;;;537.70;2406.40;;;;;;5034832;28;20061;-83
2021/08/14 03:25:04;;;;;;;11.48;9.07;;;512.70;2380.80;;;;;;5035357;28;20053;-85
2021/08/14 03:27:30;;;;;;;11.43;8.70;;;512.60;2380.80;;;;;;5035047;28;20085;-85
2021/08/14 03:29:56;;;;;;;10.27;8.68;;;512.60;2380.80;;;;;;5035363;28;20045;-84
2021/08/14 03:32:22;;;;;;;11.80;8.73;;;512.70;2380.80;;;;;;5035029;28;20380;-83
2021/08/14 03:34:48;;;;;;;20.67;9.15;;;512.50;2380.80;;;;;;5034909;28;20025;-84
2021/08/14 03:37:13;;;;;;;16.80;9.82;;;512.30;2380.80;;;;;;5034865;28;20079;-84
2021/08/14 03:39:39;;;;;;;15.90;10.15;;;512.20;2380.80;;;;;;5034843;28;20067;-87
2021/08/14 03:42:05;;;;;;;15.55;10.02;;;512.00;2380.80;;;;;;5034890;28;20355;-86
2021/08/14 03:44:31;;;;;;;13.07;9.77;;;512.20;2380.80;;;;;;5034824;28;20020;-86
2021/08/14 03:46:57;;;;;;;15.07;10.38;;;512.30;2380.80;;;;;;5034474;28;20022;-86
2021/08/14 03:49:23;;;;;;;12.52;9.18;;;512.30;2380.80;;;;;;5034632;28;20028;-86
2021/08/14 03:51:49;;;;;;;16.17;9.65;;;512.30;2380.80;;;;;;5035039;28;20099;-85
2021/08/14 03:54:15;;;;;;;18.15;10.35;;;512.30;2380.80;;;;;;5033809;28;20462;-87
2021/08/14 03:56:40;;;;;;;14.35;9.18;;;512.50;2380.80;;;;;;5034441;28;20021;-85
2021/08/14 03:59:06;;;;;;;16.15;9.45;;;512.40;2380.80;;;;;;5034644;28;20028;-85
2021/08/14 04:01:32;;;;;;;14.40;10.05;;;512.60;2380.80;;;;;;5033961;28;20056;-83
2021/08/14 04:03:58;;;;;;;16.13;10.75;;;512.60;2380.80;;;;;;5034251;28;20024;-85
2021/08/14 04:06:24;;;;;;;17.17;9.93;;;512.50;2380.80;;;;;;5034553;28;20025;-85
2021/08/14 04:08:50;;;;;;;17.90;10.60;;;512.60;2380.80;;;;;;5034223;28;20099;-84
2021/08/14 04:11:16;;;;;;;12.30;9.52;;;512.50;2380.80;;;;;;5034343;28;20029;-85
2021/08/14 04:13:41;;;;;;;16.15;9.68;;;512.30;2380.80;;;;;;5034423;28;20074;-85
2021/08/14 04:16:07;;;;;;;14.30;9.60;;;512.50;2380.80;;;;;;5034358;28;20040;-85
2021/08/14 04:18:33;;;;;;;12.38;9.93;;;512.50;2380.80;;;;;;5033986;28;20017;-85
2021/08/14 04:20:59;;;;;;;14.43;9.95;;;512.30;2380.80;;;;;;5034355;28;20459;-85
2021/08/14 04:23:25;;;;;;;13.40;9.77;;;512.20;2380.80;;;;;;5034085;28;20028;-87
2021/08/14 04:25:51;;;;;;;12.77;8.93;;;512.40;2380.80;;;;;;5034174;28;20398;-86
2021/08/14 04:28:17;;;;;;;14.10;9.57;;;512.40;2380.80;;;;;;5034042;28;20052;-86
2021/08/14 04:30:43;;;;;;;12.18;9.63;;;537.90;2406.40;;;;;;5033675;28;20095;-88
2021/08/14 04:33:09;;;;;;;12.75;9.25;;;512.40;2380.80;;;;;;5033972;28;20022;-88
2021/08/14 04:35:35;;;;;;;13.10;9.10;;;512.40;2380.80;;;;;;5033713;28;20014;-86
2021/08/14 04:38:01;;;;;;;16.17;9.63;;;512.20;2380.80;;;;;;5033977;28;20112;-86
2021/08/14 04:40:27;;;;;;;14.30;8.90;;;512.30;2380.80;;;;;;5034123;28;20076;-86
2021/08/14 04:42:54;;;;;;;11.50;9.25;;;512.30;2380.80;;;;;;5034009;28;20029;-86
2021/08/14 04:45:20;;;;;;;17.13;9.15;;;512.30;2380.80;;;;;;5033717;28;20032;-84
2021/08/14 04:47:46;;;;;;;11.48;9.98;;;512.50;2380.80;;;;;;5033657;28;20021;-86
2021/08/14 04:50:12;;;;;;;17.25;9.82;;;512.60;2380.80;;;;;;5033192;28;20485;-85
2021/08/14 04:52:38;;;;;;;13.95;10.45;;;512.60;2380.80;;;;;;5032992;28;20018;-86
2021/08/14 04:55:04;;;;;;;13.15;10.82;;;512.50;2380.80;;;;;;5033633;28;20028;-84
2021/08/14 04:57:30;;;;;;;16.60;9.55;;;512.30;2380.80;;;;;;5033439;28;20462;-85
2021/08/14 04:59:56;;;;;;;15.85;10.40;;;512.30;2380.80;;;;;;5033126;28;20022;-85
2021/08/14 05:02:22;;;;;;;13.77;9.25;;;512.50;2380.80;;;;;;5033630;28;20103;-86
2021/08/14 05:04:47;;;;;;;17.17;10.15;;;512.60;2380.80;;;;;;5032315;28;20079;-86
2021/08/14 05:07:13;;;;;;;13.65;9.45;;;512.70;2380.80;;;;;;5033314;28;20096;-86
2021/08/14 05:09:39;;;;;;;15.90;10.80;;;512.80;2380.80;;;;;;5033368;28;20060;-85
2021/08/14 05:12:06;;;;;;;13.13;9.38;;;512.80;2380.80;;;;;;5033461;28;20361;-85
2021/08/14 05:14:32;;;;;;;15.88;10.07;;;512.90;2380.80;;;;;;5033245;28;20117;-84
2021/08/14 05:16:58;;;;;;;17.08;9.77;;;512.80;2380.80;;;;;;5033267;28;20056;-85
2021/08/14 05:19:23;;;;;;;18.35;9.95;;;512.80;2380.80;;;;;;5033298;28;20104;-85
2021/08/14 05:21:49;;;;;;;17.17;9.32;;;512.90;2380.80;;;;;;5033308;28;20025;-86
2021/08/14 05:24:15;;;;;;;15.82;9.63;;;537.60;2406.40;;;;;;5033541;28;20075;-84
2021/08/14 05:26:42;;;;;;;14.80;10.00;;;537.60;2406.40;;;;;;5033092;28;20022;-84
2021/08/14 05:29:08;;;;;;;16.33;8.98;;;537.60;2406.40;;;;;;5033366;28;20049;-85
2021/08/14 05:31:35;;;;;;;17.92;9.63;;;537.60;2406.40;;;;;;5033011;28;20053;-84
2021/08/14 05:34:02;;;;;;;16.88;10.60;;;537.60;2406.40;;;;;;5033139;28;20040;-85
2021/08/14 05:36:29;;;;;;;15.65;10.05;;;537.80;2406.40;;;;;;5033080;28;20021;-84
2021/08/14 05:38:55;;;;;;;14.65;9.73;;;537.90;2406.40;;;;;;5032664;28;20028;-83
2021/08/14 05:41:21;;;;;;;13.88;9.65;;;537.90;2406.40;;;;;;5032925;28;20017;-85
2021/08/14 05:43:47;;;;;;;17.38;9.57;;;538.20;2406.40;;;;;;5033232;28;20460;-85
2021/08/14 05:46:12;;;;;;;16.42;10.23;;;538.00;2406.40;;;;;;5033062;28;20052;-84
2021/08/14 05:48:38;;;;;;;12.70;9.73;;;538.10;2406.40;;;;;;5032810;28;20024;-84
2021/08/14 05:51:04;;;;;;;15.63;9.90;;;538.00;2406.40;;;;;;5033010;28;20459;-84
2021/08/14 05:53:30;;;;;;;14.95;9.77;;;538.30;2406.40;;;;;;5032858;28;20029;-84
2021/08/14 05:55:56;;;;;;;21.02;11.10;;;538.40;2406.40;;;;;;5032693;28;20352;-83
2021/08/14 05:58:21;;;;;;;14.73;10.13;;;538.40;2406.40;;;;;;5032859;28;20024;-83
2021/08/14 06:00:47;;;;;;;13.95;9.63;;;538.40;2406.40;;;;;;5032852;28;20021;-84
2021/08/14 06:03:13;;;;;;;16.00;9.70;;;563.20;2432.00;;;;;;5032472;28;20076;-84
2021/08/14 06:05:39;;;;;;;13.95;9.23;;;563.20;2432.00;;;;;;5032852;28;20030;-84
2021/08/14 06:08:08;;;;;;;11.65;10.30;;;563.30;2432.00;;;;;;5036584;28;20439;-84
2021/08/14 06:10:34;;;;;;;13.43;10.35;;;538.50;2406.40;;;;;;5045093;28;20103;-84
2021/08/14 06:13:27;;;;;;;14.77;10.48;;;563.30;2432.00;;;;;;5043977;28;20040;-84
2021/08/14 06:15:54;;;;;;;17.13;10.02;;;563.30;2432.00;;;;;;5046724;28;20093;-83
2021/08/14 06:18:20;;;;;;;13.00;9.30;;;563.30;2432.00;;;;;;5049798;28;20095;-85
2021/08/14 06:20:46;;;;;;;14.30;9.88;;;563.40;2432.00;;;;;;5047749;28;20018;-84
2021/08/14 06:23:11;;;;;;;13.93;9.82;;;563.40;2432.00;;;;;;5050897;28;20037;-83
2021/08/14 06:25:37;;;;;;;15.30;10.13;;;563.50;2432.00;;;;;;5049464;28;20040;-83
2021/08/14 06:28:03;;;;;;;15.45;10.50;;;563.60;2432.00;;;;;;5049695;28;20125;-83
2021/08/14 06:30:29;;;;;;;18.88;9.93;;;563.90;2432.00;;;;;;5050966;28;20028;-85
2021/08/14 06:32:55;;;;;;;13.57;10.13;;;564.00;2432.00;;;;;;5026833;28;20026;-86
2021/08/14 06:35:21;;;;;;;15.77;10.50;;;564.10;2432.00;;;;;;5020054;28;20013;-84
2021/08/14 06:37:47;;;;;;;17.52;10.68;;;588.90;2432.00;;;;;;5020652;28;20041;-84
2021/08/14 06:40:14;;;;;;;13.77;10.55;;;589.00;2432.00;;;;;;5020670;28;20025;-85
2021/08/14 06:42:41;;;;;;;15.70;10.57;;;589.00;2432.00;;;;;;5020011;28;20025;-84
2021/08/14 06:45:13;;;;;;;16.30;9.48;;;589.20;2432.00;;;;;;5019693;28;20025;-84
2021/08/14 06:47:45;;;;;;;17.10;10.45;;;589.30;2432.00;;;;;;5020409;28;20115;-84
2021/08/14 06:50:11;;;;;;;17.27;9.75;;;589.40;2432.00;;;;;;5019938;28;20075;-83
2021/08/14 06:52:37;;;;;;;19.88;10.23;;;589.60;2432.00;;;;;;5019521;28;20037;-83
2021/08/14 06:55:04;;;;;;;19.83;10.13;;;589.70;2432.00;;;;;;5019867;28;20030;-82
2021/08/14 06:57:30;;;;;;;18.88;11.20;;;589.70;2432.00;;;;;;5019361;28;20112;-84
2021/08/14 06:59:58;;;;;;;14.85;10.25;;;614.50;2432.00;;;;;;5019211;28;20073;-83
2021/08/14 07:02:23;;;;;;;15.65;10.07;;;614.60;2432.00;;;;;;5018601;28;20028;-82
2021/08/14 07:04:49;;;;;;;17.70;11.13;;;614.60;2432.00;;;;;;5018534;28;20116;-83
2021/08/14 07:07:21;;;;;;;16.73;11.05;;;614.70;2432.00;;;;;;5019025;28;20026;-83
2021/08/14 07:09:47;;;;;;;16.47;10.00;;;614.80;2432.00;;;;;;5018430;28;20072;-82
2021/08/14 07:12:17;;;;;;;17.77;9.98;;;614.80;2432.00;;;;;;5019093;28;20463;-83
2021/08/14 07:14:43;;;;;;;14.60;9.30;;;614.90;2432.00;;;;;;5019590;28;20022;-83
2021/08/14 07:17:09;;;;;;;13.65;9.00;;;615.00;2432.00;;;;;;5019093;28;20083;-83
2021/08/14 07:19:35;;;;;;;15.88;9.55;;;615.30;2432.00;;;;;;5018695;28;20459;-84
2021/08/14 07:22:01;;;;;;;17.13;8.65;;;615.30;2432.00;;;;;;5018998;28;20431;-82
2021/08/14 07:24:30;;;;;;;15.57;9.38;;;640.00;2432.00;;;;;;5019302;28;20021;-82
2021/08/14 07:27:00;;;;;;;13.45;8.80;;;640.10;2432.00;;;;;;5018977;28;20462;-83
2021/08/14 07:29:26;;;;;;;10.77;7.60;;;640.20;2432.00;;;;;;5017488;28;20017;-83
2021/08/14 07:31:52;;;;;;;14.35;8.02;;;640.40;2432.00;;;;;;5028588;28;20368;-83
2021/08/14 07:34:18;;;;;;;18.00;9.02;;;640.50;2432.00;;;;;;5035097;28;20013;-82
2021/08/14 07:36:59;;;;;;;15.68;8.85;;;640.70;2432.00;;;;;;5035239;28;20025;-83
2021/08/14 07:39:25;;;;;;;13.45;9.75;;;665.60;2432.00;;;;;;5035089;28;20025;-85
2021/08/14 07:41:50;;;;;;;11.88;8.43;;;665.70;2432.00;;;;;;5035822;28;20024;-83
2021/08/14 07:44:16;;;;;;;12.82;8.38;;;666.00;2432.00;;;;;;5035051;28;20065;-84
2021/08/14 07:46:45;;;;;;;10.80;8.05;;;666.10;2432.00;;;;;;5035730;28;20125;-85
2021/08/14 07:49:15;;;;;;;14.43;8.05;;;666.30;2432.00;;;;;;5035252;28;20018;-83
2021/08/14 07:52:12;;;;;;;15.27;9.32;;;666.40;2432.00;;;;;;5035333;28;20049;-83
2021/08/14 07:54:38;;;;;;;13.48;8.82;;;691.20;2432.00;;;;;;5034501;28;20018;-82
2021/08/14 07:57:04;;;;;;;13.10;8.20;;;691.30;2432.00;;;;;;5034437;28;20116;-84
2021/08/14 07:59:30;;;;;;;12.63;8.25;;;691.40;2432.00;;;;;;5034779;28;20109;-82
2021/08/14 08:01:56;;;;;;;14.80;8.57;;;691.60;2432.00;;;;;;5034295;28;20037;-85
2021/08/14 08:04:21;;;;;;;17.05;8.30;;;691.80;2432.00;;;;;;5034785;28;20021;-83
2021/08/14 08:06:47;;;;;;;11.70;8.55;;;691.80;2432.00;;;;;;5034317;28;20067;-83
2021/08/14 08:09:13;;;;;;;14.23;7.93;;;691.70;2432.00;;;;;;5034390;28;20113;-86
2021/08/14 08:11:39;;;;;;;24.02;9.98;;;691.90;2432.00;;;;;;5034110;28;20025;-85
2021/08/14 08:14:05;;;;;;;15.38;7.63;;;716.90;2432.00;;;;;;5034066;28;20498;-86
2021/08/14 08:16:30;;;;;;;10.73;7.60;;;717.10;2432.00;;;;;;5034334;28;20051;-83
2021/08/14 08:18:56;;;;;;;20.85;10.38;;;717.20;2432.00;;;;;;5034341;28;20021;-83
2021/08/14 08:21:22;;;;;;;21.48;10.38;;;717.50;2380.80;;;;;;5033440;28;20028;-83
2021/08/14 08:24:22;;;;;;;11.25;7.97;;;717.70;2380.80;;;;;;5033742;28;20513;-84
2021/08/14 08:41:22;;;;;;;8.77;6.75;;;742.60;2278.40;;;;;;4969520;28;20108;-83
2021/08/14 08:44:15;;;;;;;11.40;6.78;;;742.90;2252.80;;;;;;4957315;28;20400;-82
2021/08/14 08:46:43;;;;;;;9.27;6.53;;;743.10;2252.80;;;;;;4973515;28;20034;-82
2021/08/14 08:49:13;;;;;;;12.73;7.80;;;743.10;2201.60;;;;;;4973609;28;20015;-83
2021/08/14 08:51:38;;;;;;;10.32;7.97;;;768.00;2227.20;;;;;;5013172;28;20083;-82
2021/08/14 08:54:07;;;;;;;11.52;7.50;;;768.30;2176.00;;;;;;5017138;28;20103;-82
2021/08/14 08:56:35;;;;;;;14.93;7.78;;;768.20;2150.40;;;;;;5017356;28;20022;-83
2021/08/14 08:59:01;;;;;;;11.45;6.60;;;768.50;2150.40;;;;;;5017308;28;20079;-83
2021/08/14 09:01:27;;;;;;;9.88;6.25;;;768.60;2150.40;;;;;;5016935;28;20021;-81
2021/08/14 09:03:53;;;;;;;8.48;5.65;;;768.60;2124.80;;;;;;5016494;28;20025;-83
2021/08/14 09:06:41;;;;;;;11.45;7.85;;;768.70;2073.60;;;;;;5017157;28;20128;-84
2021/08/14 09:09:08;;;;;;;10.68;6.28;;;768.90;2124.80;;;;;;5034576;28;20041;-82
2021/08/14 09:11:34;;;;;;;10.13;5.70;;;793.80;2124.80;;;;;;5035552;28;20092;-81
2021/08/14 09:14:44;;;;;;;8.38;5.43;;;793.80;2073.60;;;;;;5034128;28;20040;-85
2021/08/14 09:17:12;;;;;;;10.48;5.53;;;793.90;2073.60;;;;;;5016242;28;20423;-83
2021/08/14 09:19:38;;;;;;;9.68;5.28;;;793.90;2048.00;;;;;;5015899;28;20018;-82
2021/08/14 09:22:15;;;;;;;8.30;5.75;;;794.00;2022.40;;;;;;5016671;28;20025;-82
2021/08/14 09:31:55;;;;;;;11.55;5.63;;;794.40;1971.20;;;;;;4972941;28;20122;-83
2021/08/14 09:34:53;;;;;;;7.47;5.50;;;794.50;1868.80;;;;;;4975868;28;20045;-83
2021/08/14 09:37:39;;;;;;;11.00;6.72;;;794.20;1868.80;;;;;;5018241;28;20017;-83
2021/08/14 09:44:27;;;;;;;8.15;6.68;;;819.20;1817.60;;;;;;4899523;29;20466;-83
2021/08/14 09:47:24;;;;;;;10.27;6.90;;;819.90;1792.00;;;;;;4892454;29;20066;-82
2021/08/14 09:49:57;;;;;;;6.53;5.40;;;819.90;1740.80;;;;;;4915634;29;20043;-82
2021/08/14 11:17:36;;;;;;;11.48;9.52;;;922.00;1408.00;;;;;;5064370;23;20098;-82
2021/08/14 11:20:39;;;;;;;9.30;6.70;;;922.10;1382.40;;;;;;5017745;28;20022;-83
2021/08/14 11:23:55;;;;;;;10.45;7.70;;;922.20;1356.80;;;;;;5028423;28;20094;-82
2021/08/14 11:26:43;;;;;;;8.48;6.50;;;922.20;1356.80;;;;;;5017461;28;20025;-84
2021/08/14 11:29:12;;;;;;;7.63;6.40;;;896.70;1356.80;;;;;;5018044;28;20537;-82
2021/08/14 11:31:37;;;;;;;10.25;6.20;;;896.50;1382.40;;;;;;5016959;28;20052;-82
2021/08/14 11:34:12;;;;;;;8.05;6.40;;;921.60;1408.00;;;;;;5017245;28;20395;-82
2021/08/14 11:36:41;;;;;;;13.05;7.60;;;921.60;1382.40;;;;;;5016501;28;20092;-84
2021/08/14 11:39:10;;;;;;;12.45;8.15;;;922.00;1408.00;;;;;;5017836;28;20071;-83
2021/08/14 11:41:36;;;;;;;9.18;7.40;;;922.40;1382.40;;;;;;5017813;28;20021;-85
2021/08/14 11:44:06;;;;;;;9.48;6.50;;;947.30;1356.80;;;;;;5017550;28;20414;-84
2021/08/14 11:46:32;;;;;;;7.97;5.97;;;922.30;1356.80;;;;;;5018641;28;20087;-85
2021/08/14 11:49:03;;;;;;;6.35;5.72;;;947.30;1356.80;;;;;;5017035;28;20075;-84
2021/08/14 11:51:29;;;;;;;8.30;5.43;;;947.30;1331.20;;;;;;5021526;28;20025;-85
2021/08/14 11:54:12;;;;;;;8.23;6.35;;;947.60;1305.60;;;;;;5018812;28;20101;-84
2021/08/14 11:56:39;;;;;;;8.07;6.80;;;947.70;1331.20;;;;;;5010733;28;20021;-85
2021/08/14 11:59:05;;;;;;;7.80;6.18;;;948.00;1331.20;;;;;;5018034;28;20049;-84
2021/08/14 12:01:31;;;;;;;7.95;6.80;;;947.80;1305.60;;;;;;5021214;28;20037;-84
2021/08/14 12:03:59;;;;;;;7.60;6.43;;;948.10;1331.20;;;;;;5018105;28;20367;-83
2021/08/14 12:06:34;;;;;;;7.28;5.75;;;972.80;1331.20;;;;;;5017821;28;20362;-85
2021/08/14 12:09:05;;;;;;;6.60;5.90;;;948.00;1305.60;;;;;;5017038;28;20021;-86
2021/08/14 12:11:31;;;;;;;8.93;7.55;;;948.00;1280.00;;;;;;5017692;28;20021;-85
2021/08/14 12:14:18;;;;;;;9.95;6.57;;;948.10;1305.60;;;;;;5017052;28;20079;-84
2021/08/14 12:16:48;;;;;;;6.70;5.63;;;973.00;1305.60;;;;;;5017618;28;20037;-85
2021/08/14 12:19:22;;;;;;;7.75;6.03;;;973.00;1305.60;;;;;;5017396;28;20056;-86
2021/08/14 12:21:50;;;;;;;8.23;6.07;;;948.10;1280.00;;;;;;5017842;28;20029;-84
2021/08/14 12:24:26;;;;;;;6.97;6.22;;;948.10;1280.00;;;;;;5017060;28;20078;-85
2021/08/14 12:26:52;;;;;;;7.00;5.80;;;947.90;1280.00;;;;;;5016019;28;20083;-84
2021/08/14 12:29:23;;;;;;;8.13;5.72;;;947.40;1280.00;;;;;;5017458;28;20064;-82
2021/08/14 12:31:54;;;;;;;6.53;5.68;;;947.20;1305.60;;;;;;5017233;28;20403;-83
2021/08/14 12:34:27;;;;;;;9.48;6.43;;;947.90;1305.60;;;;;;5033722;28;20075;-83
2021/08/14 12:37:10;;;;;;;8.93;5.90;;;948.10;1305.60;;;;;;5017186;28;20025;-85
2021/08/14 12:39:56;;;;;;;7.38;6.63;;;973.00;1331.20;;;;;;5017116;28;20025;-83
2021/08/14 12:42:32;;;;;;;10.98;7.10;;;973.20;1305.60;;;;;;5016844;28;20083;-83
2021/08/14 12:45:21;;;;;;;8.20;6.75;;;973.50;1280.00;;;;;;5016844;28;20025;-84
2021/08/14 12:47:52;;;;;;;9.73;6.97;;;973.20;1280.00;;;;;;5017644;28;20522;-84
2021/08/14 12:50:25;;;;;;;6.57;5.77;;;948.10;1280.00;;;;;;5017246;28;20018;-83
2021/08/14 12:52:59;;;;;;;7.03;5.78;;;973.20;1305.60;;;;;;5016969;28;20282;-83
2021/08/14 12:55:46;;;;;;;9.93;6.40;;;972.80;1280.00;;;;;;5017436;28;20017;-82
2021/08/14 12:58:24;;;;;;;10.95;6.43;;;947.90;1280.00;;;;;;5017057;28;20021;-84
2021/08/14 13:00:52;;;;;;;7.90;5.75;;;947.80;1305.60;;;;;;5016730;28;20017;-84
2021/08/14 13:03:18;;;;;;;7.05;5.82;;;948.00;1228.80;;;;;;5016972;28;20222;-83
2021/08/14 13:05:44;;;;;;;7.30;5.07;;;973.00;1305.60;;;;;;5017080;28;20051;-83
2021/08/14 13:08:10;;;;;;;9.18;5.70;;;973.10;1305.60;;;;;;5016832;28;20112;-83
2021/08/14 13:10:38;;;;;;;5.70;4.88;;;973.40;1280.00;;;;;;5017077;28;20053;-84
2021/08/14 13:13:06;;;;;;;8.20;5.22;;;972.90;1280.00;;;;;;5016923;28;20124;-83
2021/08/14 13:15:44;;;;;;;14.55;6.38;;;973.70;1280.00;;;;;;5016708;28;20451;-83
2021/08/14 13:18:10;;;;;;;7.72;5.25;;;972.80;1280.00;;;;;;5016736;28;20033;-84
2021/08/14 13:20:36;;;;;;;10.63;5.32;;;973.20;1254.40;;;;;;5035797;28;20033;-83
2021/08/14 13:23:02;;;;;;;9.73;5.20;;;973.40;1280.00;;;;;;5040979;28;20025;-82
2021/08/14 13:26:20;;;;;;;8.77;6.00;;;973.70;1280.00;;;;;;5040997;28;20017;-79
2021/08/14 13:45:55;;;;;;;8.73;4.65;;;973.70;1228.80;;;;;;5636426;23;20533;-84
2021/08/14 13:48:23;;;;;;;7.78;5.13;;;973.50;1228.80;;;;;;5018440;28;20033;-86
2021/08/14 13:51:08;;;;;;;7.55;6.05;;;973.50;1254.40;;;;;;5018457;28;20021;-86
2021/08/14 13:53:41;;;;;;;8.00;5.13;;;973.40;1228.80;;;;;;5016570;28;20040;-85
2021/08/14 13:56:07;;;;;;;7.18;4.80;;;973.60;1228.80;;;;;;5016391;28;20371;-84
2021/08/14 13:58:33;;;;;;;6.90;5.00;;;973.70;1254.40;;;;;;5017692;28;20021;-82
2021/08/14 14:01:00;;;;;;;8.93;7.07;;;973.70;1228.80;;;;;;5036462;28;20064;-83
2021/08/14 14:03:26;;;;;;;7.10;4.47;;;972.90;1254.40;;;;;;5036627;28;20045;-82
2021/08/14 14:05:53;;;;;;;6.47;4.28;;;998.40;1228.80;;;;;;5036101;28;20024;-84
2021/08/14 14:08:19;;;;;;;6.80;4.43;;;998.50;1254.40;;;;;;5017307;28;20470;-85
2021/08/14 14:10:45;;;;;;;11.77;9.57;;;998.50;1228.80;;;;;;5018305;28;20076;-81
2021/08/14 14:13:11;;;;;;;5.35;4.60;;;998.60;1280.00;;;;;;5016557;28;20482;-84
2021/08/14 14:15:37;;;;;;;5.93;4.47;;;998.50;1228.80;;;;;;5016620;28;20021;-85
2021/08/14 14:18:04;;;;;;;7.32;3.90;;;998.40;1228.80;;;;;;5016603;28;20025;-83
2021/08/14 14:20:30;;;;;;;12.90;10.30;;;998.60;1203.20;;;;;;5031669;28;20021;-83
2021/08/14 14:22:56;;;;;;;7.05;5.00;;;998.60;1203.20;;;;;;5015407;28;20056;-81